createdAt,value
2017-05-21T00:00:45.369Z,1027.43
2017-05-21T00:02:07.302Z,1027.47
2017-05-21T00:03:29.209Z,1027.44
2017-05-21T00:04:52.124Z,1027.44
2017-05-21T00:06:13.949Z,1027.46
2017-05-21T00:07:35.151Z,1027.41
2017-05-21T00:08:56.342Z,1027.42
2017-05-21T00:10:18.100Z,1027.44
2017-05-21T00:11:39.928Z,1027.42
2017-05-21T00:13:01.761Z,1027.47
2017-05-21T00:14:23.278Z,1027.44
2017-05-21T00:15:45.782Z,1027.47
2017-05-21T00:17:07.429Z,1027.52
2017-05-21T00:18:29.715Z,1027.45
2017-05-21T00:19:51.281Z,1027.47
2017-05-21T00:21:14.119Z,1027.47
2017-05-21T00:22:35.631Z,1027.45
2017-05-21T00:23:57.474Z,1027.46
2017-05-21T00:25:19.621Z,1027.48
2017-05-21T00:26:42.503Z,1027.48
2017-05-21T00:28:04.012Z,1027.47
2017-05-21T00:29:25.226Z,1027.49
2017-05-21T00:30:46.856Z,1027.47
2017-05-21T00:32:08.656Z,1027.46
2017-05-21T00:33:30.493Z,1027.44
2017-05-21T00:34:52.979Z,1027.49
2017-05-21T00:36:14.557Z,1027.45
2017-05-21T00:37:37.388Z,1027.48
2017-05-21T00:38:58.907Z,1027.49
2017-05-21T00:40:20.739Z,1027.49
2017-05-21T00:41:42.565Z,1027.54
2017-05-21T00:43:04.690Z,1027.56
2017-05-21T00:44:25.921Z,1027.53
2017-05-21T00:45:47.759Z,1027.55
2017-05-21T00:47:09.985Z,1027.53
2017-05-21T00:48:32.253Z,1027.56
2017-05-21T00:49:54.111Z,1027.6
2017-05-21T00:51:15.951Z,1027.58
2017-05-21T00:52:38.089Z,1027.58
2017-05-21T00:54:00.471Z,1027.65
2017-05-21T00:55:21.657Z,1027.66
2017-05-21T00:56:43.487Z,1027.66
2017-05-21T00:58:05.325Z,1027.66
2017-05-21T00:59:27.553Z,1027.65
2017-05-21T01:00:49.810Z,1027.69
2017-05-21T01:02:11.971Z,1027.65
2017-05-21T01:03:34.121Z,1027.65
2017-05-21T01:04:56.049Z,1027.63
2017-05-21T01:06:17.620Z,1027.63
2017-05-21T01:07:39.246Z,1027.65
2017-05-21T01:09:01.083Z,1027.66
2017-05-21T01:10:23.211Z,1027.65
2017-05-21T01:11:45.126Z,1027.68
2017-05-21T01:13:07.310Z,1027.65
2017-05-21T01:14:29.568Z,1027.68
2017-05-21T01:15:51.701Z,1027.68
2017-05-21T01:17:13.883Z,1027.69
2017-05-21T01:18:35.451Z,1027.66
2017-05-21T01:19:56.980Z,1027.68
2017-05-21T01:21:19.170Z,1027.67
2017-05-21T01:22:40.991Z,1027.64
2017-05-21T01:24:03.137Z,1027.64
2017-05-21T01:25:24.660Z,1027.66
2017-05-21T01:26:47.449Z,1027.63
2017-05-21T01:28:09.650Z,1027.64
2017-05-21T01:29:31.513Z,1027.67
2017-05-21T01:30:53.339Z,1027.63
2017-05-21T01:32:15.513Z,1027.6
2017-05-21T01:33:37.350Z,1027.65
2017-05-21T01:34:58.873Z,1027.65
2017-05-21T01:36:20.537Z,1027.61
2017-05-21T01:37:43.343Z,1027.63
2017-05-21T01:39:05.192Z,1027.63
2017-05-21T01:40:27.032Z,1027.66
2017-05-21T01:41:49.200Z,1027.67
2017-05-21T01:43:11.060Z,1027.67
2017-05-21T01:44:33.199Z,1027.63
2017-05-21T01:45:55.061Z,1027.66
2017-05-21T01:47:17.216Z,1027.65
2017-05-21T01:48:39.079Z,1027.66
2017-05-21T01:50:01.235Z,1027.65
2017-05-21T01:51:22.745Z,1027.65
2017-05-21T01:52:44.877Z,1027.68
2017-05-21T01:54:07.400Z,1027.63
2017-05-21T01:55:29.539Z,1027.69
2017-05-21T01:56:51.693Z,1027.68
2017-05-21T01:58:13.520Z,1027.73
2017-05-21T01:59:35.640Z,1027.67
2017-05-21T02:00:57.476Z,1027.67
2017-05-21T02:02:19.290Z,1027.68
2017-05-21T02:03:40.804Z,1027.66
2017-05-21T02:05:02.061Z,1027.68
2017-05-21T02:06:23.866Z,1027.74
2017-05-21T02:07:45.379Z,1027.72
2017-05-21T02:09:07.281Z,1027.68
2017-05-21T02:10:30.161Z,1027.7
2017-05-21T02:11:52.624Z,1027.68
2017-05-21T02:13:14.458Z,1027.73
2017-05-21T02:14:36.286Z,1027.68
2017-05-21T02:15:58.141Z,1027.67
2017-05-21T02:17:20.609Z,1027.67
2017-05-21T02:18:42.784Z,1027.7
2017-05-21T02:20:04.690Z,1027.71
2017-05-21T02:21:26.811Z,1027.65
2017-05-21T02:22:48.313Z,1027.7
2017-05-21T02:24:09.856Z,1027.73
2017-05-21T02:25:32.170Z,1027.72
2017-05-21T02:26:54.826Z,1027.74
2017-05-21T02:28:16.965Z,1027.69
2017-05-21T02:29:38.772Z,1027.7
2017-05-21T02:31:00.918Z,1027.72
2017-05-21T02:32:22.785Z,1027.68
2017-05-21T02:33:45.246Z,1027.7
2017-05-21T02:35:07.409Z,1027.7
2017-05-21T02:36:28.982Z,1027.7
2017-05-21T02:37:51.170Z,1027.66
2017-05-21T02:39:13.049Z,1027.69
2017-05-21T02:40:34.890Z,1027.68
2017-05-21T02:41:56.729Z,1027.69
2017-05-21T02:43:18.589Z,1027.7
2017-05-21T02:44:40.727Z,1027.67
2017-05-21T02:46:02.553Z,1027.65
2017-05-21T02:47:23.769Z,1027.64
2017-05-21T02:48:45.621Z,1027.67
2017-05-21T02:50:07.461Z,1027.63
2017-05-21T02:51:29.340Z,1027.65
2017-05-21T02:52:51.158Z,1027.68
2017-05-21T02:54:13.920Z,1027.69
2017-05-21T02:55:35.490Z,1027.65
2017-05-21T02:56:57.941Z,1027.68
2017-05-21T02:58:19.830Z,1027.7
2017-05-21T02:59:42.044Z,1027.67
2017-05-21T03:01:03.558Z,1027.65
2017-05-21T03:02:24.750Z,1027.68
2017-05-21T03:03:46.887Z,1027.73
2017-05-21T03:05:09.802Z,1027.69
2017-05-21T03:06:31.691Z,1027.69
2017-05-21T03:07:53.520Z,1027.71
2017-05-21T03:09:15.829Z,1027.71
2017-05-21T03:10:38.132Z,1027.69
2017-05-21T03:12:00.255Z,1027.7
2017-05-21T03:13:21.767Z,1027.69
2017-05-21T03:14:43.346Z,1027.7
2017-05-21T03:16:05.490Z,1027.68
2017-05-21T03:17:26.695Z,1027.69
2017-05-21T03:18:48.850Z,1027.69
2017-05-21T03:20:10.675Z,1027.74
2017-05-21T03:21:32.484Z,1027.72
2017-05-21T03:22:54.630Z,1027.76
2017-05-21T03:24:16.136Z,1027.71
2017-05-21T03:25:37.643Z,1027.73
2017-05-21T03:26:59.879Z,1027.71
2017-05-21T03:28:22.101Z,1027.73
2017-05-21T03:29:44.250Z,1027.67
2017-05-21T03:31:06.478Z,1027.74
2017-05-21T03:32:28.222Z,1027.72
2017-05-21T03:33:50.679Z,1027.7
2017-05-21T03:35:13.123Z,1027.7
2017-05-21T03:36:34.717Z,1027.67
2017-05-21T03:37:57.216Z,1027.69
2017-05-21T03:39:19.062Z,1027.73
2017-05-21T03:40:40.888Z,1027.72
2017-05-21T03:42:02.407Z,1027.75
2017-05-21T03:43:24.488Z,1027.75
2017-05-21T03:44:46.322Z,1027.75
2017-05-21T03:46:08.465Z,1027.78
2017-05-21T03:47:30.622Z,1027.79
2017-05-21T03:48:53.142Z,1027.8
2017-05-21T03:50:15.598Z,1027.78
2017-05-21T03:51:37.132Z,1027.84
2017-05-21T03:52:59.587Z,1027.85
2017-05-21T03:54:22.041Z,1027.86
2017-05-21T03:55:44.173Z,1027.88
2017-05-21T03:57:06.107Z,1027.91
2017-05-21T03:58:28.045Z,1027.91
2017-05-21T03:59:49.858Z,1027.91
2017-05-21T04:01:12.013Z,1027.91
2017-05-21T04:02:34.566Z,1027.88
2017-05-21T04:03:57.028Z,1027.99
2017-05-21T04:05:19.844Z,1027.95
2017-05-21T04:06:41.730Z,1027.97
2017-05-21T04:08:03.952Z,1027.99
2017-05-21T04:09:26.159Z,1027.95
2017-05-21T04:10:48.644Z,1027.98
2017-05-21T04:12:09.852Z,1027.98
2017-05-21T04:13:31.782Z,1028.03
2017-05-21T04:14:53.429Z,1027.99
2017-05-21T04:16:15.947Z,1028
2017-05-21T04:17:37.137Z,1028.01
2017-05-21T04:18:59.291Z,1028.01
2017-05-21T04:20:21.439Z,1028.02
2017-05-21T04:21:43.678Z,1027.99
2017-05-21T04:23:04.938Z,1028.01
2017-05-21T04:24:27.090Z,1028.01
2017-05-21T04:25:48.600Z,1028.01
2017-05-21T04:27:11.419Z,1028.01
2017-05-21T04:28:33.318Z,1028.01
2017-05-21T04:29:54.830Z,1028.01
2017-05-21T04:31:17.367Z,1028.01
2017-05-21T04:32:39.191Z,1028.04
2017-05-21T04:34:01.671Z,1028.06
2017-05-21T04:35:24.150Z,1028.06
2017-05-21T04:36:46.311Z,1028.02
2017-05-21T04:38:08.174Z,1028.07
2017-05-21T04:39:30.634Z,1028.09
2017-05-21T04:40:52.827Z,1028.05
2017-05-21T04:42:14.449Z,1028.08
2017-05-21T04:43:37.002Z,1028.11
2017-05-21T04:44:59.150Z,1028.07
2017-05-21T04:46:21.600Z,1028.03
2017-05-21T04:47:43.091Z,1028.1
2017-05-21T04:49:05.882Z,1028.08
2017-05-21T04:50:27.529Z,1028.07
2017-05-21T04:51:49.719Z,1028.08
2017-05-21T04:53:11.589Z,1028.13
2017-05-21T04:54:33.770Z,1028.13
2017-05-21T04:55:55.711Z,1028.14
2017-05-21T04:57:17.848Z,1028.19
2017-05-21T04:58:39.771Z,1028.21
2017-05-21T05:00:01.538Z,1028.36
2017-05-21T05:01:23.375Z,1028.33
2017-05-21T05:02:44.977Z,1028.37
2017-05-21T05:04:07.111Z,1028.42
2017-05-21T05:05:29.523Z,1028.4
2017-05-21T05:06:51.683Z,1028.47
2017-05-21T05:08:13.350Z,1028.48
2017-05-21T05:09:34.541Z,1028.53
2017-05-21T05:10:56.100Z,1028.51
2017-05-21T05:12:17.631Z,1028.55
2017-05-21T05:13:39.168Z,1028.52
2017-05-21T05:15:00.370Z,1028.55
2017-05-21T05:16:22.240Z,1028.56
2017-05-21T05:17:43.759Z,1028.56
2017-05-21T05:19:05.421Z,1028.55
2017-05-21T05:20:27.609Z,1028.58
2017-05-21T05:21:50.138Z,1028.56
2017-05-21T05:23:12.301Z,1028.63
2017-05-21T05:24:34.509Z,1028.59
2017-05-21T05:25:55.722Z,1028.62
2017-05-21T05:27:18.577Z,1028.67
2017-05-21T05:28:41.202Z,1028.67
2017-05-21T05:30:03.496Z,1028.74
2017-05-21T05:31:25.027Z,1028.74
2017-05-21T05:32:47.354Z,1028.73
2017-05-21T05:34:09.298Z,1028.71
2017-05-21T05:35:31.780Z,1028.77
2017-05-21T05:36:54.276Z,1028.78
2017-05-21T05:38:16.519Z,1028.77
2017-05-21T05:39:38.370Z,1028.77
2017-05-21T05:40:59.911Z,1028.81
2017-05-21T05:42:21.823Z,1028.78
2017-05-21T05:43:44.381Z,1028.79
2017-05-21T05:45:06.262Z,1028.83
2017-05-21T05:46:28.100Z,1028.81
2017-05-21T05:47:49.950Z,1028.85
2017-05-21T05:49:11.844Z,1028.87
2017-05-21T05:50:33.769Z,1028.87
2017-05-21T05:51:56.281Z,1028.9
2017-05-21T05:53:18.460Z,1028.91
2017-05-21T05:54:41.322Z,1028.92
2017-05-21T05:56:03.809Z,1028.98
2017-05-21T05:57:26.298Z,1028.93
2017-05-21T05:58:48.791Z,1028.94
2017-05-21T06:00:11.269Z,1028.95
2017-05-21T06:01:33.460Z,1028.99
2017-05-21T06:02:55.319Z,1029.01
2017-05-21T06:04:17.162Z,1029
2017-05-21T06:05:39.261Z,1029.01
2017-05-21T06:07:01.107Z,1029.01
2017-05-21T06:08:22.969Z,1029.04
2017-05-21T06:09:44.832Z,1029.06
2017-05-21T06:11:07.335Z,1029.05
2017-05-21T06:12:29.202Z,1029.11
2017-05-21T06:13:51.047Z,1029.1
2017-05-21T06:15:12.894Z,1029.11
2017-05-21T06:16:35.046Z,1029.16
2017-05-21T06:17:57.323Z,1029.24
2017-05-21T06:19:19.665Z,1029.17
2017-05-21T06:20:41.930Z,1029.21
2017-05-21T06:22:03.817Z,1029.23
2017-05-21T06:23:26.016Z,1029.28
2017-05-21T06:24:47.897Z,1029.26
2017-05-21T06:26:09.750Z,1029.31
2017-05-21T06:27:31.106Z,1029.33
2017-05-21T06:28:52.652Z,1029.32
2017-05-21T06:30:15.139Z,1029.38
2017-05-21T06:31:37.010Z,1029.33
2017-05-21T06:32:58.902Z,1029.37
2017-05-21T06:34:21.068Z,1029.33
2017-05-21T06:35:43.568Z,1029.36
2017-05-21T06:37:05.738Z,1029.37
2017-05-21T06:38:28.002Z,1029.36
2017-05-21T06:39:50.678Z,1029.39
2017-05-21T06:41:12.532Z,1029.37
2017-05-21T06:42:34.397Z,1029.4
2017-05-21T06:43:56.247Z,1029.39
2017-05-21T06:45:18.507Z,1029.42
2017-05-21T06:46:40.780Z,1029.46
2017-05-21T06:48:03.297Z,1029.48
2017-05-21T06:49:25.838Z,1029.5
2017-05-21T06:50:47.801Z,1029.5
2017-05-21T06:52:09.980Z,1029.52
2017-05-21T06:53:31.827Z,1029.49
2017-05-21T06:54:54.002Z,1029.5
2017-05-21T06:56:15.948Z,1029.46
2017-05-21T06:57:37.940Z,1029.48
2017-05-21T06:59:00.228Z,1029.48
2017-05-21T07:00:22.400Z,1029.48
2017-05-21T07:01:44.960Z,1029.48
2017-05-21T07:03:07.177Z,1029.5
2017-05-21T07:04:29.249Z,1029.51
2017-05-21T07:05:51.408Z,1029.54
2017-05-21T07:07:13.257Z,1029.54
2017-05-21T07:08:34.789Z,1029.52
2017-05-21T07:09:56.465Z,1029.55
2017-05-21T07:11:18.939Z,1029.52
2017-05-21T07:12:41.560Z,1029.52
2017-05-21T07:14:04.069Z,1029.54
2017-05-21T07:15:26.313Z,1029.54
2017-05-21T07:16:48.858Z,1029.56
2017-05-21T07:18:11.023Z,1029.56
2017-05-21T07:19:33.575Z,1029.6
2017-05-21T07:20:55.740Z,1029.62
2017-05-21T07:22:18.239Z,1029.6
2017-05-21T07:23:40.420Z,1029.62
2017-05-21T07:25:02.600Z,1029.62
2017-05-21T07:26:24.478Z,1029.63
2017-05-21T07:27:46.804Z,1029.65
2017-05-21T07:29:08.683Z,1029.67
2017-05-21T07:30:31.191Z,1029.7
2017-05-21T07:31:53.053Z,1029.7
2017-05-21T07:33:15.218Z,1029.74
2017-05-21T07:34:37.792Z,1029.75
2017-05-21T07:36:00.308Z,1029.75
2017-05-21T07:37:22.599Z,1029.73
2017-05-21T07:38:44.799Z,1029.76
2017-05-21T07:40:06.975Z,1029.72
2017-05-21T07:41:28.846Z,1029.73
2017-05-21T07:42:50.717Z,1029.76
2017-05-21T07:44:13.274Z,1029.77
2017-05-21T07:45:35.449Z,1029.75
2017-05-21T07:46:57.321Z,1029.77
2017-05-21T07:48:19.178Z,1029.77
2017-05-21T07:49:41.333Z,1029.73
2017-05-21T07:51:03.608Z,1029.72
2017-05-21T07:52:25.199Z,1029.75
2017-05-21T07:53:47.149Z,1029.75
2017-05-21T07:55:08.996Z,1029.71
2017-05-21T07:56:31.178Z,1029.74
2017-05-21T07:57:53.119Z,1029.73
2017-05-21T07:59:15.294Z,1029.71
2017-05-21T08:00:37.485Z,1029.71
2017-05-21T08:01:59.690Z,1029.74
2017-05-21T08:03:21.972Z,1029.68
2017-05-21T08:04:44.171Z,1029.57
2017-05-21T08:06:06.390Z,1029.55
2017-05-21T08:07:28.057Z,1029.49
2017-05-21T08:08:49.966Z,1029.49
2017-05-21T08:10:11.872Z,1029.41
2017-05-21T08:11:34.040Z,1029.33
2017-05-21T08:12:56.607Z,1029.31
2017-05-21T08:14:18.462Z,1029.33
2017-05-21T08:15:40.974Z,1029.27
2017-05-21T08:17:03.747Z,1029.24
2017-05-21T08:18:25.719Z,1029.24
2017-05-21T08:19:48.204Z,1029.28
2017-05-21T08:21:10.084Z,1029.26
2017-05-21T08:22:32.825Z,1029.27
2017-05-21T08:23:54.098Z,1029.23
2017-05-21T08:25:16.578Z,1029.25
2017-05-21T08:26:38.578Z,1029.23
2017-05-21T08:28:00.680Z,1029.27
2017-05-21T08:29:22.873Z,1029.24
2017-05-21T08:30:45.231Z,1029.23
2017-05-21T08:32:06.879Z,1029.19
2017-05-21T08:33:28.728Z,1029.16
2017-05-21T08:34:50.412Z,1029.17
2017-05-21T08:36:12.608Z,1029.19
2017-05-21T08:37:34.479Z,1029.26
2017-05-21T08:38:56.634Z,1029.26
2017-05-21T08:40:18.179Z,1029.29
2017-05-21T08:41:39.101Z,1029.24
2017-05-21T08:43:01.581Z,1029.19
2017-05-21T08:44:24.485Z,1029.23
2017-05-21T08:45:46.336Z,1029.2
2017-05-21T08:47:08.191Z,1029.16
2017-05-21T08:48:30.769Z,1029.25
2017-05-21T08:49:53.293Z,1029.27
2017-05-21T08:51:15.477Z,1029.2
2017-05-21T08:52:37.407Z,1029.2
2017-05-21T08:54:00.005Z,1029.17
2017-05-21T08:55:21.951Z,1029.25
2017-05-21T08:56:44.425Z,1029.23
2017-05-21T08:58:06.668Z,1029.25
2017-05-21T08:59:28.240Z,1029.28
2017-05-21T09:00:50.787Z,1029.24
2017-05-21T09:02:12.399Z,1029.21
2017-05-21T09:03:34.851Z,1029.31
2017-05-21T09:04:57.017Z,1029.27
2017-05-21T09:06:18.877Z,1029.3
2017-05-21T09:07:40.728Z,1029.3
2017-05-21T09:09:03.357Z,1029.25
2017-05-21T09:10:25.837Z,1029.21
2017-05-21T09:11:47.683Z,1029.24
2017-05-21T09:13:09.258Z,1029.23
2017-05-21T09:14:31.884Z,1029.2
2017-05-21T09:15:54.521Z,1029.18
2017-05-21T09:17:17.275Z,1029.19
2017-05-21T09:18:39.132Z,1029.24
2017-05-21T09:20:01.298Z,1029.27
2017-05-21T09:21:23.516Z,1029.25
2017-05-21T09:22:45.643Z,1029.3
2017-05-21T09:24:08.184Z,1029.26
2017-05-21T09:25:29.409Z,1029.25
2017-05-21T09:26:51.606Z,1029.3
2017-05-21T09:28:13.747Z,1029.33
2017-05-21T09:29:35.605Z,1029.3
2017-05-21T09:30:57.786Z,1029.25
2017-05-21T09:32:19.945Z,1029.24
2017-05-21T09:33:42.285Z,1029.22
2017-05-21T09:35:04.218Z,1029.22
2017-05-21T09:36:26.738Z,1029.33
2017-05-21T09:37:49.228Z,1029.27
2017-05-21T09:39:12.018Z,1029.32
2017-05-21T09:40:33.888Z,1029.29
2017-05-21T09:41:55.730Z,1029.31
2017-05-21T09:43:18.223Z,1029.31
2017-05-21T09:44:40.097Z,1029.25
2017-05-21T09:46:02.653Z,1029.19
2017-05-21T09:47:24.812Z,1029.2
2017-05-21T09:48:47.019Z,1029.21
2017-05-21T09:50:09.462Z,1029.15
2017-05-21T09:51:31.650Z,1029.16
2017-05-21T09:52:53.818Z,1029.15
2017-05-21T09:54:15.982Z,1029.2
2017-05-21T09:55:38.139Z,1029.16
2017-05-21T09:56:59.688Z,1029.24
2017-05-21T09:58:21.883Z,1029.18
2017-05-21T09:59:45.960Z,1029.15
2017-05-21T10:01:08.446Z,1029.11
2017-05-21T10:02:30.930Z,1029.2
2017-05-21T10:03:53.488Z,1029.19
2017-05-21T10:05:15.669Z,1029.25
2017-05-21T10:06:38.018Z,1029.23
2017-05-21T10:07:59.588Z,1029.22
2017-05-21T10:09:21.149Z,1029.2
2017-05-21T10:10:43.342Z,1029.2
2017-05-21T10:12:06.169Z,1029.18
2017-05-21T10:13:28.588Z,1029.2
2017-05-21T10:14:50.477Z,1029.23
2017-05-21T10:16:12.431Z,1029.2
2017-05-21T10:17:34.729Z,1029.22
2017-05-21T10:18:57.247Z,1029.17
2017-05-21T10:20:19.759Z,1029.22
2017-05-21T10:21:42.243Z,1029.18
2017-05-21T10:23:04.901Z,1029.16
2017-05-21T10:24:27.415Z,1029.15
2017-05-21T10:25:49.287Z,1029.15
2017-05-21T10:27:10.854Z,1029.17
2017-05-21T10:28:34.034Z,1029.14
2017-05-21T10:29:57.245Z,1029.14
2017-05-21T10:31:19.109Z,1029.12
2017-05-21T10:32:41.357Z,1029.1
2017-05-21T10:34:03.959Z,1029.08
2017-05-21T10:35:26.431Z,1029.13
2017-05-21T10:36:48.587Z,1029.1
2017-05-21T10:38:10.443Z,1029.12
2017-05-21T10:39:32.389Z,1029.06
2017-05-21T10:40:54.578Z,1029.08
2017-05-21T10:42:16.527Z,1029.04
2017-05-21T10:43:38.682Z,1029.04
2017-05-21T10:45:01.216Z,1029.04
2017-05-21T10:46:23.078Z,1029.1
2017-05-21T10:47:45.248Z,1029.06
2017-05-21T10:49:06.779Z,1029.03
2017-05-21T10:50:29.511Z,1029.08
2017-05-21T10:51:51.676Z,1029.07
2017-05-21T10:53:13.522Z,1029.08
2017-05-21T10:54:35.388Z,1029.02
2017-05-21T10:55:57.498Z,1029.02
2017-05-21T10:57:19.103Z,1029.03
2017-05-21T10:58:41.608Z,1029.01
2017-05-21T11:00:03.778Z,1028.98
2017-05-21T11:01:26.041Z,1029
2017-05-21T11:02:47.725Z,1028.99
2017-05-21T11:04:10.253Z,1028.98
2017-05-21T11:05:32.468Z,1028.93
2017-05-21T11:06:54.928Z,1028.96
2017-05-21T11:08:17.489Z,1028.98
2017-05-21T11:09:39.647Z,1028.96
2017-05-21T11:11:01.201Z,1028.96
2017-05-21T11:12:23.665Z,1028.97
2017-05-21T11:13:46.267Z,1028.95
2017-05-21T11:15:08.468Z,1028.9
2017-05-21T11:16:30.944Z,1028.93
2017-05-21T11:17:53.398Z,1028.89
2017-05-21T11:19:15.929Z,1028.86
2017-05-21T11:20:38.096Z,1028.83
2017-05-21T11:22:00.612Z,1028.83
2017-05-21T11:23:22.703Z,1028.84
2017-05-21T11:24:45.188Z,1028.84
2017-05-21T11:26:07.230Z,1028.85
2017-05-21T11:27:28.827Z,1028.84
2017-05-21T11:28:51.237Z,1028.86
2017-05-21T11:30:13.455Z,1028.82
2017-05-21T11:31:35.625Z,1028.81
2017-05-21T11:32:57.163Z,1028.85
2017-05-21T11:34:19.675Z,1028.81
2017-05-21T11:35:41.889Z,1028.74
2017-05-21T11:37:04.351Z,1028.71
2017-05-21T11:38:26.639Z,1028.68
2017-05-21T11:39:49.486Z,1028.66
2017-05-21T11:41:11.330Z,1028.63
2017-05-21T11:42:33.797Z,1028.67
2017-05-21T11:43:55.669Z,1028.69
2017-05-21T11:45:18.408Z,1028.76
2017-05-21T11:46:39.634Z,1028.73
2017-05-21T11:48:01.805Z,1028.75
2017-05-21T11:49:24.227Z,1028.78
2017-05-21T11:50:46.341Z,1028.81
2017-05-21T11:52:08.518Z,1028.75
2017-05-21T11:53:30.829Z,1028.67
2017-05-21T11:54:53.176Z,1028.73
2017-05-21T11:56:15.934Z,1028.72
2017-05-21T11:57:37.789Z,1028.78
2017-05-21T11:59:00.248Z,1028.74
2017-05-21T12:00:21.791Z,1028.72
2017-05-21T12:01:43.961Z,1028.7
2017-05-21T12:03:06.287Z,1028.64
2017-05-21T12:04:28.644Z,1028.68
2017-05-21T12:05:50.528Z,1028.7
2017-05-21T12:07:12.842Z,1028.73
2017-05-21T12:08:35.338Z,1028.75
2017-05-21T12:09:57.534Z,1028.74
2017-05-21T12:11:19.490Z,1028.64
2017-05-21T12:12:42.052Z,1028.63
2017-05-21T12:14:04.306Z,1028.67
2017-05-21T12:15:26.825Z,1028.67
2017-05-21T12:16:49.039Z,1028.7
2017-05-21T12:18:11.209Z,1028.71
2017-05-21T12:19:33.385Z,1028.71
2017-05-21T12:20:55.307Z,1028.69
2017-05-21T12:22:17.489Z,1028.74
2017-05-21T12:23:40.098Z,1028.71
2017-05-21T12:25:02.709Z,1028.7
2017-05-21T12:26:24.297Z,1028.71
2017-05-21T12:27:46.479Z,1028.67
2017-05-21T12:29:08.698Z,1028.68
2017-05-21T12:30:31.208Z,1028.67
2017-05-21T12:31:53.393Z,1028.65
2017-05-21T12:33:15.552Z,1028.69
2017-05-21T12:34:38.341Z,1028.63
2017-05-21T12:36:00.230Z,1028.63
2017-05-21T12:37:22.089Z,1028.6
2017-05-21T12:38:44.270Z,1028.62
2017-05-21T12:40:06.377Z,1028.64
2017-05-21T12:41:28.219Z,1028.61
2017-05-21T12:42:50.067Z,1028.57
2017-05-21T12:44:11.915Z,1028.57
2017-05-21T12:45:34.770Z,1028.61
2017-05-21T12:46:56.964Z,1028.53
2017-05-21T12:48:19.259Z,1028.61
2017-05-21T12:49:41.769Z,1028.57
2017-05-21T12:51:04.558Z,1028.58
2017-05-21T12:52:26.418Z,1028.54
2017-05-21T12:53:48.324Z,1028.54
2017-05-21T12:55:10.262Z,1028.52
2017-05-21T12:56:32.490Z,1028.55
2017-05-21T12:57:54.959Z,1028.52
2017-05-21T12:59:16.865Z,1028.51
2017-05-21T13:00:38.305Z,1028.5
2017-05-21T13:02:00.169Z,1028.44
2017-05-21T13:03:21.419Z,1028.46
2017-05-21T13:04:43.523Z,1028.53
2017-05-21T13:06:05.704Z,1028.52
2017-05-21T13:07:27.914Z,1028.49
2017-05-21T13:08:49.740Z,1028.52
2017-05-21T13:10:12.319Z,1028.51
2017-05-21T13:11:34.607Z,1028.5
2017-05-21T13:12:56.517Z,1028.5
2017-05-21T13:14:18.828Z,1028.49
2017-05-21T13:15:40.402Z,1028.48
2017-05-21T13:17:02.246Z,1028.49
2017-05-21T13:18:25.078Z,1028.5
2017-05-21T13:19:47.291Z,1028.45
2017-05-21T13:21:09.649Z,1028.47
2017-05-21T13:22:31.849Z,1028.49
2017-05-21T13:23:54.346Z,1028.48
2017-05-21T13:25:16.869Z,1028.51
2017-05-21T13:26:39.348Z,1028.54
2017-05-21T13:28:00.939Z,1028.53
2017-05-21T13:29:24.065Z,1028.5
2017-05-21T13:30:46.233Z,1028.47
2017-05-21T13:32:08.408Z,1028.51
2017-05-21T13:33:30.408Z,1028.51
2017-05-21T13:34:52.287Z,1028.48
2017-05-21T13:36:14.468Z,1028.44
2017-05-21T13:37:36.632Z,1028.48
2017-05-21T13:38:59.138Z,1028.41
2017-05-21T13:40:21.588Z,1028.43
2017-05-21T13:41:43.437Z,1028.4
2017-05-21T13:43:05.667Z,1028.44
2017-05-21T13:44:28.013Z,1028.42
2017-05-21T13:45:50.563Z,1028.37
2017-05-21T13:47:12.865Z,1028.36
2017-05-21T13:48:35.045Z,1028.39
2017-05-21T13:49:56.878Z,1028.33
2017-05-21T13:51:18.990Z,1028.33
2017-05-21T13:52:41.474Z,1028.32
2017-05-21T13:54:03.322Z,1028.31
2017-05-21T13:55:25.499Z,1028.32
2017-05-21T13:56:47.704Z,1028.27
2017-05-21T13:58:10.129Z,1028.25
2017-05-21T13:59:32.363Z,1028.21
2017-05-21T14:00:54.525Z,1028.21
2017-05-21T14:02:17.059Z,1028.19
2017-05-21T14:03:39.599Z,1028.14
2017-05-21T14:05:02.115Z,1028.1
2017-05-21T14:06:24.298Z,1028.09
2017-05-21T14:07:46.554Z,1028.06
2017-05-21T14:09:08.951Z,1028.06
2017-05-21T14:10:30.819Z,1028.04
2017-05-21T14:11:53.046Z,1028.04
2017-05-21T14:13:15.177Z,1028
2017-05-21T14:14:37.015Z,1028.03
2017-05-21T14:15:59.501Z,1028
2017-05-21T14:17:21.659Z,1028
2017-05-21T14:18:43.889Z,1028.02
2017-05-21T14:20:06.439Z,1028.01
2017-05-21T14:21:28.908Z,1028.07
2017-05-21T14:22:51.065Z,1028.03
2017-05-21T14:24:13.171Z,1028.01
2017-05-21T14:25:34.716Z,1028.05
2017-05-21T14:26:57.156Z,1027.97
2017-05-21T14:28:19.410Z,1028
2017-05-21T14:29:40.931Z,1028.02
2017-05-21T14:31:03.168Z,1028.02
2017-05-21T14:32:25.661Z,1027.98
2017-05-21T14:33:46.988Z,1028.01
2017-05-21T14:35:09.092Z,1027.98
2017-05-21T14:36:30.628Z,1027.99
2017-05-21T14:37:52.824Z,1027.97
2017-05-21T14:39:14.998Z,1027.97
2017-05-21T14:40:37.541Z,1027.97
2017-05-21T14:41:58.778Z,1027.91
2017-05-21T14:43:20.641Z,1027.9
2017-05-21T14:44:43.134Z,1027.84
2017-05-21T14:46:05.255Z,1027.83
2017-05-21T14:47:27.761Z,1027.78
2017-05-21T14:48:49.989Z,1027.8
2017-05-21T14:50:10.953Z,1027.77
2017-05-21T14:51:33.457Z,1027.74
2017-05-21T14:52:55.049Z,1027.72
2017-05-21T14:54:17.226Z,1027.75
2017-05-21T14:55:39.737Z,1027.75
2017-05-21T14:57:02.198Z,1027.78
2017-05-21T14:58:24.688Z,1027.78
2017-05-21T14:59:47.240Z,1027.77
2017-05-21T15:01:09.734Z,1027.73
2017-05-21T15:02:32.560Z,1027.75
2017-05-21T15:03:54.447Z,1027.77
2017-05-21T15:05:16.939Z,1027.72
2017-05-21T15:06:39.113Z,1027.78
2017-05-21T15:08:01.591Z,1027.77
2017-05-21T15:09:24.094Z,1027.72
2017-05-21T15:10:46.584Z,1027.75
2017-05-21T15:12:08.450Z,1027.76
2017-05-21T15:13:30.992Z,1027.72
2017-05-21T15:14:53.221Z,1027.71
2017-05-21T15:16:15.713Z,1027.69
2017-05-21T15:17:38.316Z,1027.7
2017-05-21T15:19:00.839Z,1027.7
2017-05-21T15:20:23.052Z,1027.67
2017-05-21T15:21:45.272Z,1027.67
2017-05-21T15:23:07.143Z,1027.66
2017-05-21T15:24:29.341Z,1027.6
2017-05-21T15:25:51.852Z,1027.59
2017-05-21T15:27:14.319Z,1027.56
2017-05-21T15:28:36.532Z,1027.56
2017-05-21T15:29:59.323Z,1027.54
2017-05-21T15:31:22.077Z,1027.53
2017-05-21T15:32:44.572Z,1027.53
2017-05-21T15:34:07.077Z,1027.51
2017-05-21T15:35:29.571Z,1027.53
2017-05-21T15:36:51.548Z,1027.5
2017-05-21T15:38:13.431Z,1027.49
2017-05-21T15:39:35.616Z,1027.48
2017-05-21T15:40:58.210Z,1027.46
2017-05-21T15:42:20.069Z,1027.45
2017-05-21T15:43:42.809Z,1027.48
2017-05-21T15:45:05.008Z,1027.44
2017-05-21T15:46:27.022Z,1027.4
2017-05-21T15:47:48.895Z,1027.37
2017-05-21T15:49:11.509Z,1027.37
2017-05-21T15:50:33.692Z,1027.37
2017-05-21T15:51:56.629Z,1027.33
2017-05-21T15:53:18.871Z,1027.33
2017-05-21T15:54:41.352Z,1027.34
2017-05-21T15:56:03.288Z,1027.3
2017-05-21T15:57:25.628Z,1027.3
2017-05-21T15:58:47.847Z,1027.28
2017-05-21T16:00:10.108Z,1027.25
2017-05-21T16:01:32.021Z,1027.26
2017-05-21T16:02:53.860Z,1027.26
2017-05-21T16:04:16.350Z,1027.25
2017-05-21T16:05:38.224Z,1027.25
2017-05-21T16:06:59.778Z,1027.24
2017-05-21T16:08:22.577Z,1027.2
2017-05-21T16:09:44.750Z,1027.21
2017-05-21T16:11:06.949Z,1027.2
2017-05-21T16:12:29.262Z,1027.12
2017-05-21T16:13:50.741Z,1027.13
2017-05-21T16:15:13.275Z,1027.11
2017-05-21T16:16:35.489Z,1027.12
2017-05-21T16:17:57.677Z,1027.12
2017-05-21T16:19:20.275Z,1027.13
2017-05-21T16:20:42.884Z,1027.1
2017-05-21T16:22:05.126Z,1027.11
2017-05-21T16:23:27.639Z,1027.11
2017-05-21T16:24:50.480Z,1027.13
2017-05-21T16:26:12.339Z,1027.07
2017-05-21T16:27:34.536Z,1027.06
2017-05-21T16:28:56.800Z,1027.03
2017-05-21T16:30:19.358Z,1027.05
2017-05-21T16:31:41.565Z,1027.04
2017-05-21T16:33:03.433Z,1027.03
2017-05-21T16:34:25.330Z,1027.07
2017-05-21T16:35:48.265Z,1027.02
2017-05-21T16:37:10.134Z,1027.01